sensor_id;sensor_type;location;lat;lon;timestamp;P1;durP1;ratioP1;P2;durP2;ratioP2
3795;SDS011;1913;50.660;7.834;2023-04-06T00:01:05;10.70;;;4.90;;
3795;SDS011;1913;50.660;7.834;2023-04-06T00:03:31;6.50;;;4.20;;
3795;SDS011;1913;50.660;7.834;2023-04-06T00:05:57;6.37;;;4.43;;
3795;SDS011;1913;50.660;7.834;2023-04-06T00:08:22;7.63;;;4.67;;
3795;SDS011;1913;50.660;7.834;2023-04-06T00:10:48;5.13;;;4.27;;
3795;SDS011;1913;50.660;7.834;2023-04-06T00:13:14;7.03;;;4.57;;
3795;SDS011;1913;50.660;7.834;2023-04-06T00:15:40;4.67;;;4.00;;
3795;SDS011;1913;50.660;7.834;2023-04-06T00:18:05;5.30;;;4.30;;
3795;SDS011;1913;50.660;7.834;2023-04-06T00:20:31;6.17;;;4.20;;
3795;SDS011;1913;50.660;7.834;2023-04-06T00:22:56;5.83;;;4.17;;
3795;SDS011;1913;50.660;7.834;2023-04-06T00:25:22;5.50;;;4.03;;
3795;SDS011;1913;50.660;7.834;2023-04-06T00:27:47;6.00;;;4.40;;
3795;SDS011;1913;50.660;7.834;2023-04-06T00:30:13;4.67;;;3.80;;
3795;SDS011;1913;50.660;7.834;2023-04-06T00:32:38;6.40;;;4.33;;
3795;SDS011;1913;50.660;7.834;2023-04-06T00:35:04;6.00;;;3.90;;
3795;SDS011;1913;50.660;7.834;2023-04-06T00:37:30;5.57;;;3.80;;
3795;SDS011;1913;50.660;7.834;2023-04-06T00:39:56;6.57;;;4.43;;
3795;SDS011;1913;50.660;7.834;2023-04-06T00:42:21;9.10;;;4.10;;
3795;SDS011;1913;50.660;7.834;2023-04-06T00:44:53;6.60;;;4.37;;
3795;SDS011;1913;50.660;7.834;2023-04-06T00:47:23;7.50;;;4.53;;
3795;SDS011;1913;50.660;7.834;2023-04-06T00:49:50;5.77;;;4.40;;
3795;SDS011;1913;50.660;7.834;2023-04-06T00:52:16;6.77;;;3.80;;
3795;SDS011;1913;50.660;7.834;2023-04-06T00:54:42;9.73;;;4.30;;
3795;SDS011;1913;50.660;7.834;2023-04-06T00:57:08;6.53;;;4.57;;
3795;SDS011;1913;50.660;7.834;2023-04-06T00:59:34;7.03;;;4.37;;
3795;SDS011;1913;50.660;7.834;2023-04-06T01:02:00;5.23;;;4.00;;
3795;SDS011;1913;50.660;7.834;2023-04-06T01:04:26;6.47;;;3.90;;
3795;SDS011;1913;50.660;7.834;2023-04-06T01:06:52;8.50;;;4.70;;
3795;SDS011;1913;50.660;7.834;2023-04-06T01:09:17;7.57;;;4.27;;
3795;SDS011;1913;50.660;7.834;2023-04-06T01:11:43;5.80;;;3.90;;
3795;SDS011;1913;50.660;7.834;2023-04-06T01:14:08;7.40;;;4.10;;
3795;SDS011;1913;50.660;7.834;2023-04-06T01:16:34;6.20;;;4.40;;
3795;SDS011;1913;50.660;7.834;2023-04-06T01:19:00;6.97;;;4.40;;
3795;SDS011;1913;50.660;7.834;2023-04-06T01:21:26;5.60;;;3.77;;
3795;SDS011;1913;50.660;7.834;2023-04-06T01:23:52;5.83;;;4.00;;
3795;SDS011;1913;50.660;7.834;2023-04-06T01:26:17;6.87;;;4.37;;
3795;SDS011;1913;50.660;7.834;2023-04-06T01:28:43;5.93;;;4.30;;
3795;SDS011;1913;50.660;7.834;2023-04-06T01:31:10;6.20;;;3.90;;
3795;SDS011;1913;50.660;7.834;2023-04-06T01:33:35;9.63;;;4.87;;
3795;SDS011;1913;50.660;7.834;2023-04-06T01:36:02;7.40;;;4.07;;
3795;SDS011;1913;50.660;7.834;2023-04-06T01:38:28;10.53;;;5.00;;
3795;SDS011;1913;50.660;7.834;2023-04-06T01:40:54;7.73;;;4.80;;
3795;SDS011;1913;50.660;7.834;2023-04-06T01:43:20;5.60;;;3.80;;
3795;SDS011;1913;50.660;7.834;2023-04-06T01:45:45;9.00;;;4.27;;
3795;SDS011;1913;50.660;7.834;2023-04-06T01:48:11;8.80;;;4.73;;
3795;SDS011;1913;50.660;7.834;2023-04-06T01:50:36;11.20;;;4.80;;
3795;SDS011;1913;50.660;7.834;2023-04-06T01:53:02;10.53;;;4.40;;
3795;SDS011;1913;50.660;7.834;2023-04-06T01:55:27;6.07;;;3.80;;
3795;SDS011;1913;50.660;7.834;2023-04-06T01:57:52;7.57;;;4.77;;
3795;SDS011;1913;50.660;7.834;2023-04-06T02:00:18;6.87;;;4.60;;
3795;SDS011;1913;50.660;7.834;2023-04-06T02:02:43;6.03;;;4.60;;
3795;SDS011;1913;50.660;7.834;2023-04-06T02:05:09;8.60;;;4.23;;
3795;SDS011;1913;50.660;7.834;2023-04-06T02:07:34;8.13;;;4.30;;
3795;SDS011;1913;50.660;7.834;2023-04-06T02:10:00;9.90;;;4.43;;
3795;SDS011;1913;50.660;7.834;2023-04-06T02:12:25;5.37;;;3.97;;
3795;SDS011;1913;50.660;7.834;2023-04-06T02:14:51;6.33;;;4.40;;
3795;SDS011;1913;50.660;7.834;2023-04-06T02:17:16;5.87;;;4.37;;
3795;SDS011;1913;50.660;7.834;2023-04-06T02:19:42;6.80;;;4.23;;
3795;SDS011;1913;50.660;7.834;2023-04-06T02:22:08;6.47;;;4.47;;
3795;SDS011;1913;50.660;7.834;2023-04-06T02:24:34;11.87;;;4.77;;
3795;SDS011;1913;50.660;7.834;2023-04-06T02:27:00;7.73;;;4.90;;
3795;SDS011;1913;50.660;7.834;2023-04-06T02:29:26;7.90;;;4.17;;
3795;SDS011;1913;50.660;7.834;2023-04-06T02:31:51;8.50;;;4.83;;
3795;SDS011;1913;50.660;7.834;2023-04-06T02:34:17;9.00;;;4.60;;
3795;SDS011;1913;50.660;7.834;2023-04-06T02:36:45;7.03;;;4.40;;
3795;SDS011;1913;50.660;7.834;2023-04-06T02:39:11;6.97;;;4.60;;
3795;SDS011;1913;50.660;7.834;2023-04-06T02:41:38;7.33;;;4.93;;
3795;SDS011;1913;50.660;7.834;2023-04-06T02:44:03;6.73;;;4.63;;
3795;SDS011;1913;50.660;7.834;2023-04-06T02:46:31;7.33;;;4.50;;
3795;SDS011;1913;50.660;7.834;2023-04-06T02:48:56;7.63;;;4.50;;
3795;SDS011;1913;50.660;7.834;2023-04-06T02:51:22;6.57;;;4.17;;
3795;SDS011;1913;50.660;7.834;2023-04-06T02:53:47;6.67;;;4.90;;
3795;SDS011;1913;50.660;7.834;2023-04-06T02:56:12;6.30;;;4.07;;
3795;SDS011;1913;50.660;7.834;2023-04-06T02:58:38;7.60;;;4.60;;
3795;SDS011;1913;50.660;7.834;2023-04-06T03:01:03;6.40;;;4.60;;
3795;SDS011;1913;50.660;7.834;2023-04-06T03:03:29;8.27;;;4.87;;
3795;SDS011;1913;50.660;7.834;2023-04-06T03:05:55;7.00;;;4.57;;
3795;SDS011;1913;50.660;7.834;2023-04-06T03:08:23;6.43;;;4.10;;
3795;SDS011;1913;50.660;7.834;2023-04-06T03:10:50;5.20;;;4.00;;
3795;SDS011;1913;50.660;7.834;2023-04-06T03:13:16;5.80;;;4.40;;
3795;SDS011;1913;50.660;7.834;2023-04-06T03:15:41;5.90;;;4.20;;
3795;SDS011;1913;50.660;7.834;2023-04-06T03:18:07;5.97;;;4.57;;
3795;SDS011;1913;50.660;7.834;2023-04-06T03:20:32;7.00;;;4.00;;
3795;SDS011;1913;50.660;7.834;2023-04-06T03:22:58;6.00;;;4.00;;
3795;SDS011;1913;50.660;7.834;2023-04-06T03:25:24;6.87;;;4.57;;
3795;SDS011;1913;50.660;7.834;2023-04-06T03:27:49;9.27;;;4.87;;
3795;SDS011;1913;50.660;7.834;2023-04-06T03:30:15;8.20;;;4.97;;
3795;SDS011;1913;50.660;7.834;2023-04-06T03:32:42;6.80;;;4.40;;
3795;SDS011;1913;50.660;7.834;2023-04-06T03:35:10;5.60;;;3.97;;
3795;SDS011;1913;50.660;7.834;2023-04-06T03:37:36;7.50;;;4.03;;
3795;SDS011;1913;50.660;7.834;2023-04-06T03:40:01;7.43;;;4.40;;
3795;SDS011;1913;50.660;7.834;2023-04-06T03:42:28;6.60;;;4.43;;
3795;SDS011;1913;50.660;7.834;2023-04-06T03:44:53;6.63;;;4.07;;
3795;SDS011;1913;50.660;7.834;2023-04-06T03:47:19;8.67;;;4.00;;
3795;SDS011;1913;50.660;7.834;2023-04-06T03:49:45;8.00;;;4.77;;
3795;SDS011;1913;50.660;7.834;2023-04-06T03:52:11;5.33;;;3.77;;
3795;SDS011;1913;50.660;7.834;2023-04-06T03:54:36;7.30;;;3.83;;
3795;SDS011;1913;50.660;7.834;2023-04-06T03:57:01;9.27;;;4.63;;
3795;SDS011;1913;50.660;7.834;2023-04-06T03:59:27;6.87;;;3.90;;
3795;SDS011;1913;50.660;7.834;2023-04-06T04:01:52;7.13;;;4.60;;
3795;SDS011;1913;50.660;7.834;2023-04-06T04:04:18;7.60;;;4.90;;
3795;SDS011;1913;50.660;7.834;2023-04-06T04:06:44;8.50;;;4.40;;
3795;SDS011;1913;50.660;7.834;2023-04-06T04:09:10;5.63;;;3.93;;
3795;SDS011;1913;50.660;7.834;2023-04-06T04:11:35;6.40;;;4.40;;
3795;SDS011;1913;50.660;7.834;2023-04-06T04:14:02;6.80;;;4.60;;
3795;SDS011;1913;50.660;7.834;2023-04-06T04:16:52;8.43;;;4.13;;
3795;SDS011;1913;50.660;7.834;2023-04-06T04:19:42;7.57;;;4.10;;
3795;SDS011;1913;50.660;7.834;2023-04-06T04:22:31;6.67;;;3.90;;
3795;SDS011;1913;50.660;7.834;2023-04-06T04:25:22;7.37;;;4.10;;
3795;SDS011;1913;50.660;7.834;2023-04-06T04:28:13;8.57;;;4.27;;
3795;SDS011;1913;50.660;7.834;2023-04-06T04:31:03;9.10;;;4.37;;
3795;SDS011;1913;50.660;7.834;2023-04-06T04:33:54;6.73;;;4.30;;
3795;SDS011;1913;50.660;7.834;2023-04-06T04:36:45;5.10;;;3.73;;
3795;SDS011;1913;50.660;7.834;2023-04-06T04:39:36;5.60;;;4.10;;
3795;SDS011;1913;50.660;7.834;2023-04-06T04:42:26;5.77;;;3.93;;
3795;SDS011;1913;50.660;7.834;2023-04-06T04:45:17;7.10;;;4.30;;
3795;SDS011;1913;50.660;7.834;2023-04-06T04:48:07;5.50;;;4.23;;
3795;SDS011;1913;50.660;7.834;2023-04-06T04:50:57;6.83;;;4.30;;
3795;SDS011;1913;50.660;7.834;2023-04-06T04:53:48;9.03;;;4.47;;
3795;SDS011;1913;50.660;7.834;2023-04-06T04:56:38;9.90;;;4.37;;
3795;SDS011;1913;50.660;7.834;2023-04-06T04:59:28;11.40;;;4.40;;
3795;SDS011;1913;50.660;7.834;2023-04-06T05:02:19;7.17;;;4.37;;
3795;SDS011;1913;50.660;7.834;2023-04-06T05:05:10;5.10;;;4.00;;
3795;SDS011;1913;50.660;7.834;2023-04-06T05:08:00;7.37;;;4.60;;
3795;SDS011;1913;50.660;7.834;2023-04-06T05:10:51;8.63;;;4.67;;
3795;SDS011;1913;50.660;7.834;2023-04-06T05:13:42;6.83;;;4.50;;
3795;SDS011;1913;50.660;7.834;2023-04-06T05:16:33;9.60;;;3.93;;
3795;SDS011;1913;50.660;7.834;2023-04-06T05:19:24;6.43;;;4.50;;
3795;SDS011;1913;50.660;7.834;2023-04-06T05:22:14;12.30;;;4.17;;
3795;SDS011;1913;50.660;7.834;2023-04-06T05:25:05;7.37;;;4.90;;
3795;SDS011;1913;50.660;7.834;2023-04-06T05:27:56;6.73;;;4.33;;
3795;SDS011;1913;50.660;7.834;2023-04-06T05:30:47;7.00;;;4.63;;
3795;SDS011;1913;50.660;7.834;2023-04-06T05:33:38;6.57;;;4.47;;
3795;SDS011;1913;50.660;7.834;2023-04-06T05:42:18;11.30;;;4.87;;
3795;SDS011;1913;50.660;7.834;2023-04-06T05:44:44;6.63;;;4.90;;
3795;SDS011;1913;50.660;7.834;2023-04-06T05:47:12;8.27;;;4.47;;
3795;SDS011;1913;50.660;7.834;2023-04-06T05:49:37;6.57;;;4.53;;
3795;SDS011;1913;50.660;7.834;2023-04-06T05:52:02;10.17;;;5.20;;
3795;SDS011;1913;50.660;7.834;2023-04-06T05:54:29;8.53;;;4.67;;
3795;SDS011;1913;50.660;7.834;2023-04-06T05:56:55;7.53;;;4.97;;
3795;SDS011;1913;50.660;7.834;2023-04-06T05:59:20;10.60;;;4.50;;
3795;SDS011;1913;50.660;7.834;2023-04-06T06:04:57;9.07;;;4.90;;
3795;SDS011;1913;50.660;7.834;2023-04-06T06:07:22;8.40;;;4.73;;
3795;SDS011;1913;50.660;7.834;2023-04-06T06:09:48;8.20;;;5.30;;
3795;SDS011;1913;50.660;7.834;2023-04-06T06:12:13;7.63;;;4.83;;
3795;SDS011;1913;50.660;7.834;2023-04-06T06:14:39;7.50;;;4.80;;
3795;SDS011;1913;50.660;7.834;2023-04-06T06:17:04;9.03;;;5.53;;
3795;SDS011;1913;50.660;7.834;2023-04-06T06:19:30;7.40;;;5.17;;
3795;SDS011;1913;50.660;7.834;2023-04-06T06:21:55;8.30;;;5.40;;
3795;SDS011;1913;50.660;7.834;2023-04-06T06:24:20;5.93;;;4.90;;
3795;SDS011;1913;50.660;7.834;2023-04-06T06:26:46;10.03;;;6.00;;
3795;SDS011;1913;50.660;7.834;2023-04-06T06:29:13;11.33;;;6.10;;
3795;SDS011;1913;50.660;7.834;2023-04-06T06:31:39;9.67;;;5.57;;
3795;SDS011;1913;50.660;7.834;2023-04-06T06:34:05;10.83;;;6.23;;
3795;SDS011;1913;50.660;7.834;2023-04-06T06:36:30;14.47;;;7.37;;
3795;SDS011;1913;50.660;7.834;2023-04-06T06:38:56;13.30;;;6.93;;
3795;SDS011;1913;50.660;7.834;2023-04-06T06:41:23;30.37;;;12.53;;
3795;SDS011;1913;50.660;7.834;2023-04-06T06:43:51;49.97;;;19.10;;
3795;SDS011;1913;50.660;7.834;2023-04-06T06:46:16;10.97;;;6.47;;
3795;SDS011;1913;50.660;7.834;2023-04-06T06:48:41;20.77;;;10.50;;
3795;SDS011;1913;50.660;7.834;2023-04-06T06:51:07;9.50;;;5.97;;
3795;SDS011;1913;50.660;7.834;2023-04-06T06:53:32;15.73;;;7.87;;
3795;SDS011;1913;50.660;7.834;2023-04-06T06:55:57;45.37;;;20.20;;
3795;SDS011;1913;50.660;7.834;2023-04-06T06:58:23;14.97;;;7.70;;
3795;SDS011;1913;50.660;7.834;2023-04-06T07:00:48;12.00;;;6.40;;
3795;SDS011;1913;50.660;7.834;2023-04-06T07:03:14;12.00;;;6.67;;
3795;SDS011;1913;50.660;7.834;2023-04-06T07:05:44;9.87;;;6.63;;
3795;SDS011;1913;50.660;7.834;2023-04-06T07:08:14;19.63;;;7.23;;
3795;SDS011;1913;50.660;7.834;2023-04-06T07:10:39;10.10;;;6.27;;
3795;SDS011;1913;50.660;7.834;2023-04-06T07:13:05;10.60;;;6.20;;
3795;SDS011;1913;50.660;7.834;2023-04-06T07:15:30;11.93;;;6.77;;
3795;SDS011;1913;50.660;7.834;2023-04-06T07:17:56;11.17;;;6.80;;
3795;SDS011;1913;50.660;7.834;2023-04-06T07:20:21;11.00;;;6.50;;
3795;SDS011;1913;50.660;7.834;2023-04-06T07:22:46;11.37;;;6.83;;
3795;SDS011;1913;50.660;7.834;2023-04-06T07:25:13;12.00;;;6.53;;
3795;SDS011;1913;50.660;7.834;2023-04-06T07:27:38;12.87;;;7.23;;
3795;SDS011;1913;50.660;7.834;2023-04-06T07:30:03;11.00;;;6.50;;
3795;SDS011;1913;50.660;7.834;2023-04-06T07:32:29;9.50;;;6.77;;
3795;SDS011;1913;50.660;7.834;2023-04-06T07:34:55;15.60;;;7.70;;
3795;SDS011;1913;50.660;7.834;2023-04-06T07:37:21;11.27;;;6.63;;
3795;SDS011;1913;50.660;7.834;2023-04-06T07:39:46;10.17;;;6.33;;
3795;SDS011;1913;50.660;7.834;2023-04-06T07:42:12;14.33;;;8.20;;
3795;SDS011;1913;50.660;7.834;2023-04-06T07:44:37;12.37;;;6.97;;
3795;SDS011;1913;50.660;7.834;2023-04-06T07:47:03;11.47;;;7.03;;
3795;SDS011;1913;50.660;7.834;2023-04-06T07:49:28;14.93;;;7.23;;
3795;SDS011;1913;50.660;7.834;2023-04-06T07:51:53;24.87;;;12.13;;
3795;SDS011;1913;50.660;7.834;2023-04-06T07:54:19;16.40;;;7.10;;
3795;SDS011;1913;50.660;7.834;2023-04-06T07:56:44;15.60;;;8.33;;
3795;SDS011;1913;50.660;7.834;2023-04-06T07:59:10;16.90;;;7.90;;
3795;SDS011;1913;50.660;7.834;2023-04-06T08:01:36;32.10;;;16.90;;
3795;SDS011;1913;50.660;7.834;2023-04-06T08:04:01;13.67;;;7.40;;
3795;SDS011;1913;50.660;7.834;2023-04-06T08:06:27;13.33;;;8.57;;
3795;SDS011;1913;50.660;7.834;2023-04-06T08:08:52;17.40;;;8.10;;
3795;SDS011;1913;50.660;7.834;2023-04-06T08:11:19;14.00;;;7.70;;
3795;SDS011;1913;50.660;7.834;2023-04-06T08:13:44;12.53;;;7.70;;
3795;SDS011;1913;50.660;7.834;2023-04-06T08:16:10;14.17;;;8.40;;
3795;SDS011;1913;50.660;7.834;2023-04-06T08:18:35;10.27;;;6.83;;
3795;SDS011;1913;50.660;7.834;2023-04-06T08:21:00;12.03;;;7.17;;
3795;SDS011;1913;50.660;7.834;2023-04-06T08:23:26;17.30;;;8.43;;
3795;SDS011;1913;50.660;7.834;2023-04-06T08:25:51;13.60;;;8.07;;
3795;SDS011;1913;50.660;7.834;2023-04-06T08:28:19;15.93;;;8.30;;
3795;SDS011;1913;50.660;7.834;2023-04-06T08:30:45;15.90;;;8.00;;
3795;SDS011;1913;50.660;7.834;2023-04-06T08:33:10;12.70;;;8.17;;
3795;SDS011;1913;50.660;7.834;2023-04-06T08:35:36;12.67;;;6.53;;
3795;SDS011;1913;50.660;7.834;2023-04-06T08:38:01;11.07;;;7.40;;
3795;SDS011;1913;50.660;7.834;2023-04-06T08:40:26;14.83;;;7.40;;
3795;SDS011;1913;50.660;7.834;2023-04-06T08:42:54;13.73;;;8.60;;
3795;SDS011;1913;50.660;7.834;2023-04-06T08:45:20;12.10;;;7.60;;
3795;SDS011;1913;50.660;7.834;2023-04-06T08:47:55;10.43;;;6.87;;
3795;SDS011;1913;50.660;7.834;2023-04-06T08:50:22;13.00;;;7.67;;
3795;SDS011;1913;50.660;7.834;2023-04-06T08:52:49;12.50;;;7.50;;
3795;SDS011;1913;50.660;7.834;2023-04-06T08:55:15;14.70;;;7.77;;
3795;SDS011;1913;50.660;7.834;2023-04-06T08:57:41;13.13;;;7.60;;
3795;SDS011;1913;50.660;7.834;2023-04-06T09:00:07;14.30;;;7.50;;
3795;SDS011;1913;50.660;7.834;2023-04-06T09:02:37;12.07;;;7.87;;
3795;SDS011;1913;50.660;7.834;2023-04-06T09:05:04;13.43;;;8.60;;
3795;SDS011;1913;50.660;7.834;2023-04-06T09:07:29;16.20;;;8.90;;
3795;SDS011;1913;50.660;7.834;2023-04-06T09:09:55;14.30;;;8.53;;
3795;SDS011;1913;50.660;7.834;2023-04-06T09:12:21;17.20;;;8.70;;
3795;SDS011;1913;50.660;7.834;2023-04-06T09:14:48;16.03;;;8.43;;
3795;SDS011;1913;50.660;7.834;2023-04-06T09:17:19;12.30;;;7.93;;
3795;SDS011;1913;50.660;7.834;2023-04-06T09:19:46;18.27;;;8.10;;
3795;SDS011;1913;50.660;7.834;2023-04-06T09:22:11;21.00;;;8.30;;
3795;SDS011;1913;50.660;7.834;2023-04-06T09:24:43;14.43;;;8.70;;
3795;SDS011;1913;50.660;7.834;2023-04-06T09:27:11;16.30;;;8.57;;
3795;SDS011;1913;50.660;7.834;2023-04-06T09:29:37;21.30;;;9.77;;
3795;SDS011;1913;50.660;7.834;2023-04-06T09:32:06;13.60;;;8.33;;
3795;SDS011;1913;50.660;7.834;2023-04-06T09:34:33;15.27;;;8.40;;
3795;SDS011;1913;50.660;7.834;2023-04-06T09:36:59;19.90;;;9.70;;
3795;SDS011;1913;50.660;7.834;2023-04-06T09:39:24;17.67;;;9.30;;
3795;SDS011;1913;50.660;7.834;2023-04-06T09:41:51;13.93;;;8.87;;
3795;SDS011;1913;50.660;7.834;2023-04-06T09:44:17;18.13;;;8.97;;
3795;SDS011;1913;50.660;7.834;2023-04-06T09:46:43;14.97;;;9.20;;
3795;SDS011;1913;50.660;7.834;2023-04-06T09:49:10;22.37;;;9.00;;
3795;SDS011;1913;50.660;7.834;2023-04-06T09:51:40;17.23;;;9.47;;
3795;SDS011;1913;50.660;7.834;2023-04-06T09:54:10;17.30;;;9.23;;
3795;SDS011;1913;50.660;7.834;2023-04-06T09:56:44;18.80;;;8.17;;
3795;SDS011;1913;50.660;7.834;2023-04-06T09:59:31;19.63;;;9.70;;
3795;SDS011;1913;50.660;7.834;2023-04-06T10:04:59;16.60;;;9.10;;
3795;SDS011;1913;50.660;7.834;2023-04-06T10:07:30;17.17;;;8.93;;
3795;SDS011;1913;50.660;7.834;2023-04-06T10:09:56;20.90;;;8.97;;
3795;SDS011;1913;50.660;7.834;2023-04-06T10:12:24;18.50;;;8.10;;
3795;SDS011;1913;50.660;7.834;2023-04-06T10:17:18;20.27;;;9.00;;
3795;SDS011;1913;50.660;7.834;2023-04-06T10:19:49;18.97;;;8.80;;
3795;SDS011;1913;50.660;7.834;2023-04-06T10:22:26;16.20;;;7.97;;
3795;SDS011;1913;50.660;7.834;2023-04-06T10:24:57;14.83;;;8.00;;
3795;SDS011;1913;50.660;7.834;2023-04-06T10:27:29;14.40;;;7.60;;
3795;SDS011;1913;50.660;7.834;2023-04-06T10:30:00;14.50;;;8.30;;
3795;SDS011;1913;50.660;7.834;2023-04-06T10:32:34;18.10;;;8.63;;
3795;SDS011;1913;50.660;7.834;2023-04-06T10:35:05;17.20;;;8.50;;
3795;SDS011;1913;50.660;7.834;2023-04-06T10:37:45;17.37;;;8.50;;
3795;SDS011;1913;50.660;7.834;2023-04-06T10:40:18;15.10;;;7.80;;
3795;SDS011;1913;50.660;7.834;2023-04-06T10:42:47;20.30;;;8.60;;
3795;SDS011;1913;50.660;7.834;2023-04-06T10:45:19;18.53;;;8.50;;
3795;SDS011;1913;50.660;7.834;2023-04-06T10:47:49;14.57;;;8.93;;
3795;SDS011;1913;50.660;7.834;2023-04-06T10:50:15;17.80;;;8.60;;
3795;SDS011;1913;50.660;7.834;2023-04-06T10:52:45;24.83;;;9.80;;
3795;SDS011;1913;50.660;7.834;2023-04-06T10:55:12;21.67;;;9.67;;
3795;SDS011;1913;50.660;7.834;2023-04-06T10:57:39;19.30;;;9.00;;
3795;SDS011;1913;50.660;7.834;2023-04-06T11:00:05;18.47;;;8.73;;
3795;SDS011;1913;50.660;7.834;2023-04-06T11:02:31;20.20;;;9.80;;
3795;SDS011;1913;50.660;7.834;2023-04-06T11:04:57;19.37;;;10.07;;
3795;SDS011;1913;50.660;7.834;2023-04-06T11:07:26;20.13;;;9.03;;
3795;SDS011;1913;50.660;7.834;2023-04-06T11:09:54;20.10;;;9.20;;
3795;SDS011;1913;50.660;7.834;2023-04-06T11:12:26;16.17;;;9.00;;
3795;SDS011;1913;50.660;7.834;2023-04-06T11:14:59;16.97;;;9.37;;
3795;SDS011;1913;50.660;7.834;2023-04-06T11:17:29;17.77;;;9.30;;
3795;SDS011;1913;50.660;7.834;2023-04-06T11:19:56;15.63;;;9.27;;
3795;SDS011;1913;50.660;7.834;2023-04-06T11:22:22;17.00;;;9.57;;
3795;SDS011;1913;50.660;7.834;2023-04-06T11:24:48;17.43;;;8.83;;
3795;SDS011;1913;50.660;7.834;2023-04-06T11:27:17;20.00;;;9.93;;
3795;SDS011;1913;50.660;7.834;2023-04-06T11:29:43;16.83;;;10.37;;
3795;SDS011;1913;50.660;7.834;2023-04-06T11:32:11;19.80;;;10.20;;
3795;SDS011;1913;50.660;7.834;2023-04-06T11:34:37;17.83;;;9.47;;
3795;SDS011;1913;50.660;7.834;2023-04-06T11:37:08;18.33;;;9.40;;
3795;SDS011;1913;50.660;7.834;2023-04-06T11:39:51;19.83;;;10.37;;
3795;SDS011;1913;50.660;7.834;2023-04-06T11:44:55;17.17;;;9.30;;
3795;SDS011;1913;50.660;7.834;2023-04-06T11:47:28;16.70;;;8.80;;
3795;SDS011;1913;50.660;7.834;2023-04-06T11:52:34;16.77;;;9.50;;
3795;SDS011;1913;50.660;7.834;2023-04-06T11:55:09;23.40;;;9.40;;
3795;SDS011;1913;50.660;7.834;2023-04-06T11:57:39;15.03;;;9.50;;
3795;SDS011;1913;50.660;7.834;2023-04-06T12:00:06;16.23;;;8.60;;
3795;SDS011;1913;50.660;7.834;2023-04-06T12:02:34;18.50;;;9.23;;
3795;SDS011;1913;50.660;7.834;2023-04-06T12:05:00;16.37;;;8.67;;
3795;SDS011;1913;50.660;7.834;2023-04-06T12:07:25;15.97;;;9.33;;
3795;SDS011;1913;50.660;7.834;2023-04-06T12:09:50;18.13;;;9.27;;
3795;SDS011;1913;50.660;7.834;2023-04-06T12:12:15;16.13;;;8.80;;
3795;SDS011;1913;50.660;7.834;2023-04-06T12:14:41;13.77;;;8.67;;
3795;SDS011;1913;50.660;7.834;2023-04-06T12:17:06;16.30;;;9.50;;
3795;SDS011;1913;50.660;7.834;2023-04-06T12:19:33;18.10;;;9.00;;
3795;SDS011;1913;50.660;7.834;2023-04-06T12:21:58;16.00;;;8.60;;
3795;SDS011;1913;50.660;7.834;2023-04-06T12:24:24;13.83;;;8.63;;
3795;SDS011;1913;50.660;7.834;2023-04-06T12:26:49;18.93;;;10.00;;
3795;SDS011;1913;50.660;7.834;2023-04-06T12:29:15;15.00;;;8.93;;
3795;SDS011;1913;50.660;7.834;2023-04-06T12:31:40;15.77;;;9.00;;
3795;SDS011;1913;50.660;7.834;2023-04-06T12:34:07;16.17;;;9.60;;
3795;SDS011;1913;50.660;7.834;2023-04-06T12:36:33;18.37;;;9.73;;
3795;SDS011;1913;50.660;7.834;2023-04-06T12:38:58;14.50;;;9.63;;
3795;SDS011;1913;50.660;7.834;2023-04-06T12:41:25;17.50;;;9.30;;
3795;SDS011;1913;50.660;7.834;2023-04-06T12:43:51;13.20;;;8.57;;
3795;SDS011;1913;50.660;7.834;2023-04-06T12:46:16;15.73;;;9.30;;
3795;SDS011;1913;50.660;7.834;2023-04-06T12:48:41;16.47;;;8.77;;
3795;SDS011;1913;50.660;7.834;2023-04-06T12:51:07;15.77;;;9.00;;
3795;SDS011;1913;50.660;7.834;2023-04-06T12:53:33;15.03;;;8.43;;
3795;SDS011;1913;50.660;7.834;2023-04-06T12:55:59;16.00;;;8.83;;
3795;SDS011;1913;50.660;7.834;2023-04-06T12:58:25;19.27;;;9.97;;
3795;SDS011;1913;50.660;7.834;2023-04-06T13:00:52;19.43;;;10.17;;
3795;SDS011;1913;50.660;7.834;2023-04-06T13:03:20;18.07;;;10.80;;
3795;SDS011;1913;50.660;7.834;2023-04-06T13:05:49;17.67;;;9.80;;
3795;SDS011;1913;50.660;7.834;2023-04-06T13:08:16;16.03;;;9.50;;
3795;SDS011;1913;50.660;7.834;2023-04-06T13:10:43;20.30;;;10.50;;
3795;SDS011;1913;50.660;7.834;2023-04-06T13:13:10;17.27;;;10.10;;
3795;SDS011;1913;50.660;7.834;2023-04-06T13:15:35;14.70;;;9.60;;
3795;SDS011;1913;50.660;7.834;2023-04-06T13:18:01;15.90;;;9.63;;
3795;SDS011;1913;50.660;7.834;2023-04-06T13:20:27;15.60;;;9.37;;
3795;SDS011;1913;50.660;7.834;2023-04-06T13:22:52;16.93;;;9.90;;
3795;SDS011;1913;50.660;7.834;2023-04-06T13:25:18;15.87;;;9.60;;
3795;SDS011;1913;50.660;7.834;2023-04-06T13:27:43;18.83;;;9.30;;
3795;SDS011;1913;50.660;7.834;2023-04-06T13:30:11;16.70;;;9.30;;
3795;SDS011;1913;50.660;7.834;2023-04-06T13:32:37;17.50;;;10.50;;
3795;SDS011;1913;50.660;7.834;2023-04-06T13:35:04;21.53;;;10.23;;
3795;SDS011;1913;50.660;7.834;2023-04-06T13:37:32;14.40;;;8.60;;
3795;SDS011;1913;50.660;7.834;2023-04-06T13:39:58;16.73;;;9.20;;
3795;SDS011;1913;50.660;7.834;2023-04-06T13:42:23;18.63;;;9.93;;
3795;SDS011;1913;50.660;7.834;2023-04-06T13:44:49;19.10;;;9.50;;
3795;SDS011;1913;50.660;7.834;2023-04-06T13:47:15;17.73;;;9.87;;
3795;SDS011;1913;50.660;7.834;2023-04-06T13:49:41;14.40;;;8.43;;
3795;SDS011;1913;50.660;7.834;2023-04-06T13:52:06;14.43;;;8.90;;
3795;SDS011;1913;50.660;7.834;2023-04-06T13:54:32;18.67;;;9.77;;
3795;SDS011;1913;50.660;7.834;2023-04-06T13:56:57;14.20;;;8.50;;
3795;SDS011;1913;50.660;7.834;2023-04-06T13:59:22;18.17;;;9.40;;
3795;SDS011;1913;50.660;7.834;2023-04-06T14:01:48;15.37;;;9.03;;
3795;SDS011;1913;50.660;7.834;2023-04-06T14:04:13;17.00;;;9.20;;
3795;SDS011;1913;50.660;7.834;2023-04-06T14:06:38;18.17;;;9.27;;
3795;SDS011;1913;50.660;7.834;2023-04-06T14:09:04;17.47;;;9.47;;
3795;SDS011;1913;50.660;7.834;2023-04-06T14:11:30;19.63;;;9.50;;
3795;SDS011;1913;50.660;7.834;2023-04-06T14:13:55;17.10;;;8.90;;
3795;SDS011;1913;50.660;7.834;2023-04-06T14:16:21;14.77;;;8.90;;
3795;SDS011;1913;50.660;7.834;2023-04-06T14:18:48;15.20;;;9.23;;
3795;SDS011;1913;50.660;7.834;2023-04-06T14:21:13;16.80;;;9.23;;
3795;SDS011;1913;50.660;7.834;2023-04-06T14:23:39;13.77;;;8.60;;
3795;SDS011;1913;50.660;7.834;2023-04-06T14:26:06;15.40;;;9.53;;
3795;SDS011;1913;50.660;7.834;2023-04-06T14:28:33;17.43;;;8.47;;
3795;SDS011;1913;50.660;7.834;2023-04-06T14:30:59;17.07;;;9.20;;
3795;SDS011;1913;50.660;7.834;2023-04-06T14:33:26;17.83;;;9.33;;
3795;SDS011;1913;50.660;7.834;2023-04-06T14:35:52;14.23;;;8.10;;
3795;SDS011;1913;50.660;7.834;2023-04-06T14:38:17;14.90;;;7.77;;
3795;SDS011;1913;50.660;7.834;2023-04-06T14:40:43;14.03;;;7.97;;
3795;SDS011;1913;50.660;7.834;2023-04-06T14:43:08;14.57;;;8.63;;
3795;SDS011;1913;50.660;7.834;2023-04-06T14:45:34;14.13;;;8.30;;
3795;SDS011;1913;50.660;7.834;2023-04-06T14:48:04;14.60;;;8.00;;
3795;SDS011;1913;50.660;7.834;2023-04-06T14:50:31;13.00;;;7.40;;
3795;SDS011;1913;50.660;7.834;2023-04-06T14:52:57;11.50;;;7.70;;
3795;SDS011;1913;50.660;7.834;2023-04-06T14:55:22;13.13;;;8.37;;
3795;SDS011;1913;50.660;7.834;2023-04-06T14:57:47;14.33;;;7.70;;
3795;SDS011;1913;50.660;7.834;2023-04-06T15:00:13;14.73;;;8.07;;
3795;SDS011;1913;50.660;7.834;2023-04-06T15:02:39;14.07;;;8.10;;
3795;SDS011;1913;50.660;7.834;2023-04-06T15:05:04;17.40;;;8.43;;
3795;SDS011;1913;50.660;7.834;2023-04-06T15:07:30;14.87;;;8.27;;
3795;SDS011;1913;50.660;7.834;2023-04-06T15:09:55;14.10;;;8.13;;
3795;SDS011;1913;50.660;7.834;2023-04-06T15:12:22;14.00;;;8.30;;
3795;SDS011;1913;50.660;7.834;2023-04-06T15:14:47;16.10;;;8.37;;
3795;SDS011;1913;50.660;7.834;2023-04-06T15:17:12;13.77;;;7.93;;
3795;SDS011;1913;50.660;7.834;2023-04-06T15:19:38;14.97;;;8.63;;
3795;SDS011;1913;50.660;7.834;2023-04-06T15:22:03;15.20;;;9.13;;
3795;SDS011;1913;50.660;7.834;2023-04-06T15:24:28;13.83;;;8.27;;
3795;SDS011;1913;50.660;7.834;2023-04-06T15:26:54;13.20;;;8.07;;
3795;SDS011;1913;50.660;7.834;2023-04-06T15:29:19;14.10;;;8.27;;
3795;SDS011;1913;50.660;7.834;2023-04-06T15:31:45;12.00;;;7.90;;